sensor_id;sensor_type;location;lat;lon;timestamp;P1;durP1;ratioP1;P2;durP2;ratioP2
56927;SDS011;60850;52.502;13.426;2023-11-19T00:00:30;13.05;;;6.13;;
56927;SDS011;60850;52.502;13.426;2023-11-19T00:03:16;11.20;;;6.10;;
56927;SDS011;60850;52.502;13.426;2023-11-19T00:05:43;8.52;;;5.63;;
56927;SDS011;60850;52.502;13.426;2023-11-19T00:08:10;9.90;;;5.70;;
56927;SDS011;60850;52.502;13.426;2023-11-19T00:10:37;11.45;;;5.95;;
56927;SDS011;60850;52.502;13.426;2023-11-19T00:13:04;9.85;;;6.32;;
56927;SDS011;60850;52.502;13.426;2023-11-19T00:15:33;11.57;;;6.38;;
56927;SDS011;60850;52.502;13.426;2023-11-19T00:18:00;11.85;;;5.85;;
56927;SDS011;60850;52.502;13.426;2023-11-19T00:20:30;12.18;;;6.13;;
56927;SDS011;60850;52.502;13.426;2023-11-19T00:22:57;12.07;;;6.13;;
56927;SDS011;60850;52.502;13.426;2023-11-19T00:25:24;21.67;;;8.93;;
56927;SDS011;60850;52.502;13.426;2023-11-19T00:27:51;8.98;;;5.50;;
56927;SDS011;60850;52.502;13.426;2023-11-19T00:30:19;41.08;;;14.68;;
56927;SDS011;60850;52.502;13.426;2023-11-19T00:32:47;17.35;;;9.02;;
56927;SDS011;60850;52.502;13.426;2023-11-19T00:35:14;12.32;;;5.95;;
56927;SDS011;60850;52.502;13.426;2023-11-19T00:37:41;17.77;;;8.57;;
56927;SDS011;60850;52.502;13.426;2023-11-19T00:40:11;10.38;;;6.38;;
56927;SDS011;60850;52.502;13.426;2023-11-19T00:42:39;17.77;;;8.13;;
56927;SDS011;60850;52.502;13.426;2023-11-19T00:45:07;11.82;;;6.47;;
56927;SDS011;60850;52.502;13.426;2023-11-19T00:47:35;11.60;;;6.82;;
56927;SDS011;60850;52.502;13.426;2023-11-19T00:50:04;13.98;;;7.00;;
56927;SDS011;60850;52.502;13.426;2023-11-19T00:52:34;11.48;;;5.97;;
56927;SDS011;60850;52.502;13.426;2023-11-19T00:55:01;13.02;;;6.70;;
56927;SDS011;60850;52.502;13.426;2023-11-19T00:57:28;20.88;;;9.57;;
56927;SDS011;60850;52.502;13.426;2023-11-19T00:59:56;14.25;;;7.45;;
56927;SDS011;60850;52.502;13.426;2023-11-19T01:02:23;15.23;;;6.38;;
56927;SDS011;60850;52.502;13.426;2023-11-19T01:04:50;12.98;;;6.45;;
56927;SDS011;60850;52.502;13.426;2023-11-19T01:07:18;12.10;;;5.35;;
56927;SDS011;60850;52.502;13.426;2023-11-19T01:09:49;8.50;;;5.05;;
56927;SDS011;60850;52.502;13.426;2023-11-19T01:12:16;9.88;;;5.90;;
56927;SDS011;60850;52.502;13.426;2023-11-19T01:14:44;8.48;;;5.43;;
56927;SDS011;60850;52.502;13.426;2023-11-19T01:17:11;10.45;;;5.82;;
56927;SDS011;60850;52.502;13.426;2023-11-19T01:19:38;10.55;;;5.38;;
56927;SDS011;60850;52.502;13.426;2023-11-19T01:22:08;11.23;;;5.20;;
56927;SDS011;60850;52.502;13.426;2023-11-19T01:24:36;9.40;;;5.60;;
56927;SDS011;60850;52.502;13.426;2023-11-19T01:27:03;10.45;;;4.85;;
56927;SDS011;60850;52.502;13.426;2023-11-19T01:29:31;14.57;;;7.40;;
56927;SDS011;60850;52.502;13.426;2023-11-19T01:31:58;11.75;;;5.95;;
56927;SDS011;60850;52.502;13.426;2023-11-19T01:34:26;12.07;;;6.18;;
56927;SDS011;60850;52.502;13.426;2023-11-19T01:36:54;11.40;;;5.80;;
56927;SDS011;60850;52.502;13.426;2023-11-19T01:39:21;13.00;;;6.00;;
56927;SDS011;60850;52.502;13.426;2023-11-19T01:41:49;7.63;;;5.03;;
56927;SDS011;60850;52.502;13.426;2023-11-19T01:44:17;8.40;;;5.30;;
56927;SDS011;60850;52.502;13.426;2023-11-19T01:46:44;7.80;;;4.65;;
56927;SDS011;60850;52.502;13.426;2023-11-19T01:49:14;7.28;;;4.80;;
56927;SDS011;60850;52.502;13.426;2023-11-19T01:51:43;8.35;;;4.82;;
56927;SDS011;60850;52.502;13.426;2023-11-19T01:54:10;8.38;;;5.03;;
56927;SDS011;60850;52.502;13.426;2023-11-19T01:56:38;9.05;;;5.00;;
56927;SDS011;60850;52.502;13.426;2023-11-19T01:59:08;8.38;;;4.85;;
56927;SDS011;60850;52.502;13.426;2023-11-19T02:01:36;9.15;;;5.65;;
56927;SDS011;60850;52.502;13.426;2023-11-19T02:04:05;8.30;;;5.22;;
56927;SDS011;60850;52.502;13.426;2023-11-19T02:06:33;7.32;;;4.57;;
56927;SDS011;60850;52.502;13.426;2023-11-19T02:09:01;8.52;;;4.97;;
56927;SDS011;60850;52.502;13.426;2023-11-19T02:11:33;8.10;;;4.57;;
56927;SDS011;60850;52.502;13.426;2023-11-19T02:14:00;7.45;;;4.70;;
56927;SDS011;60850;52.502;13.426;2023-11-19T02:16:29;9.55;;;5.15;;
56927;SDS011;60850;52.502;13.426;2023-11-19T02:18:56;9.10;;;4.45;;
56927;SDS011;60850;52.502;13.426;2023-11-19T02:21:23;8.35;;;4.70;;
56927;SDS011;60850;52.502;13.426;2023-11-19T02:23:50;8.60;;;4.75;;
56927;SDS011;60850;52.502;13.426;2023-11-19T02:26:18;6.10;;;3.92;;
56927;SDS011;60850;52.502;13.426;2023-11-19T02:28:53;7.72;;;4.45;;
56927;SDS011;60850;52.502;13.426;2023-11-19T02:31:19;6.85;;;4.20;;
56927;SDS011;60850;52.502;13.426;2023-11-19T02:33:48;8.95;;;4.25;;
56927;SDS011;60850;52.502;13.426;2023-11-19T02:36:15;8.25;;;4.88;;
56927;SDS011;60850;52.502;13.426;2023-11-19T02:38:43;8.50;;;4.90;;
56927;SDS011;60850;52.502;13.426;2023-11-19T02:41:10;10.05;;;4.63;;
56927;SDS011;60850;52.502;13.426;2023-11-19T02:43:37;10.48;;;4.50;;
56927;SDS011;60850;52.502;13.426;2023-11-19T02:46:05;6.80;;;4.40;;
56927;SDS011;60850;52.502;13.426;2023-11-19T02:48:34;7.28;;;4.30;;
56927;SDS011;60850;52.502;13.426;2023-11-19T02:51:01;6.00;;;3.22;;
56927;SDS011;60850;52.502;13.426;2023-11-19T02:53:29;5.72;;;3.42;;
56927;SDS011;60850;52.502;13.426;2023-11-19T02:55:57;8.60;;;4.40;;
56927;SDS011;60850;52.502;13.426;2023-11-19T02:58:31;8.07;;;4.35;;
56927;SDS011;60850;52.502;13.426;2023-11-19T03:00:59;9.13;;;3.97;;
56927;SDS011;60850;52.502;13.426;2023-11-19T03:03:36;7.53;;;4.03;;
56927;SDS011;60850;52.502;13.426;2023-11-19T03:06:06;7.80;;;3.90;;
56927;SDS011;60850;52.502;13.426;2023-11-19T03:08:35;8.18;;;3.78;;
56927;SDS011;60850;52.502;13.426;2023-11-19T03:11:02;5.50;;;3.35;;
56927;SDS011;60850;52.502;13.426;2023-11-19T03:13:31;6.70;;;3.40;;
56927;SDS011;60850;52.502;13.426;2023-11-19T03:15:57;5.43;;;3.38;;
56927;SDS011;60850;52.502;13.426;2023-11-19T03:18:24;6.03;;;3.95;;
56927;SDS011;60850;52.502;13.426;2023-11-19T03:20:53;7.00;;;3.90;;
56927;SDS011;60850;52.502;13.426;2023-11-19T03:23:20;5.20;;;3.47;;
56927;SDS011;60850;52.502;13.426;2023-11-19T03:25:48;5.60;;;3.95;;
56927;SDS011;60850;52.502;13.426;2023-11-19T03:28:15;6.20;;;3.70;;
56927;SDS011;60850;52.502;13.426;2023-11-19T03:30:42;5.97;;;3.42;;
56927;SDS011;60850;52.502;13.426;2023-11-19T03:33:09;5.82;;;3.50;;
56927;SDS011;60850;52.502;13.426;2023-11-19T03:35:36;6.65;;;4.30;;
56927;SDS011;60850;52.502;13.426;2023-11-19T03:38:04;5.20;;;3.55;;
56927;SDS011;60850;52.502;13.426;2023-11-19T03:40:31;6.95;;;3.92;;
56927;SDS011;60850;52.502;13.426;2023-11-19T03:42:58;6.03;;;3.85;;
56927;SDS011;60850;52.502;13.426;2023-11-19T03:45:25;8.20;;;4.30;;
56927;SDS011;60850;52.502;13.426;2023-11-19T03:47:52;6.63;;;3.97;;
56927;SDS011;60850;52.502;13.426;2023-11-19T03:50:19;5.85;;;3.67;;
56927;SDS011;60850;52.502;13.426;2023-11-19T03:52:46;6.70;;;4.10;;
56927;SDS011;60850;52.502;13.426;2023-11-19T03:55:15;6.75;;;3.95;;
56927;SDS011;60850;52.502;13.426;2023-11-19T03:57:42;6.97;;;4.25;;
56927;SDS011;60850;52.502;13.426;2023-11-19T04:00:09;7.95;;;3.88;;
56927;SDS011;60850;52.502;13.426;2023-11-19T04:02:39;6.78;;;4.25;;
56927;SDS011;60850;52.502;13.426;2023-11-19T04:05:06;8.10;;;4.60;;
56927;SDS011;60850;52.502;13.426;2023-11-19T04:07:35;7.13;;;3.65;;
56927;SDS011;60850;52.502;13.426;2023-11-19T04:10:02;8.35;;;5.18;;
56927;SDS011;60850;52.502;13.426;2023-11-19T04:12:31;10.57;;;4.72;;
56927;SDS011;60850;52.502;13.426;2023-11-19T04:14:58;10.43;;;5.28;;
56927;SDS011;60850;52.502;13.426;2023-11-19T04:17:25;8.90;;;4.45;;
56927;SDS011;60850;52.502;13.426;2023-11-19T04:19:52;8.13;;;4.72;;
56927;SDS011;60850;52.502;13.426;2023-11-19T04:22:19;9.77;;;5.05;;
56927;SDS011;60850;52.502;13.426;2023-11-19T04:24:46;9.02;;;4.53;;
56927;SDS011;60850;52.502;13.426;2023-11-19T04:27:13;10.52;;;5.72;;
56927;SDS011;60850;52.502;13.426;2023-11-19T04:29:42;9.82;;;5.45;;
56927;SDS011;60850;52.502;13.426;2023-11-19T04:32:09;10.10;;;5.82;;
56927;SDS011;60850;52.502;13.426;2023-11-19T04:34:35;9.30;;;4.40;;
56927;SDS011;60850;52.502;13.426;2023-11-19T04:37:03;11.13;;;5.25;;
56927;SDS011;60850;52.502;13.426;2023-11-19T04:39:30;9.63;;;5.68;;
56927;SDS011;60850;52.502;13.426;2023-11-19T04:41:57;8.55;;;4.80;;
56927;SDS011;60850;52.502;13.426;2023-11-19T04:44:24;10.98;;;5.03;;
56927;SDS011;60850;52.502;13.426;2023-11-19T04:46:53;9.40;;;5.20;;
56927;SDS011;60850;52.502;13.426;2023-11-19T04:49:19;7.18;;;4.65;;
56927;SDS011;60850;52.502;13.426;2023-11-19T04:51:47;10.00;;;5.40;;
56927;SDS011;60850;52.502;13.426;2023-11-19T04:54:14;10.23;;;5.38;;
56927;SDS011;60850;52.502;13.426;2023-11-19T04:56:44;8.38;;;4.82;;
56927;SDS011;60850;52.502;13.426;2023-11-19T04:59:11;9.95;;;5.20;;
56927;SDS011;60850;52.502;13.426;2023-11-19T05:01:38;11.68;;;6.13;;
56927;SDS011;60850;52.502;13.426;2023-11-19T05:04:07;9.68;;;5.63;;
56927;SDS011;60850;52.502;13.426;2023-11-19T05:06:34;9.73;;;4.53;;
56927;SDS011;60850;52.502;13.426;2023-11-19T05:09:01;9.30;;;4.93;;
56927;SDS011;60850;52.502;13.426;2023-11-19T05:11:30;10.63;;;5.43;;
56927;SDS011;60850;52.502;13.426;2023-11-19T05:13:58;9.93;;;5.43;;
56927;SDS011;60850;52.502;13.426;2023-11-19T05:16:25;10.52;;;5.95;;
56927;SDS011;60850;52.502;13.426;2023-11-19T05:18:52;10.73;;;5.95;;
56927;SDS011;60850;52.502;13.426;2023-11-19T05:21:20;11.30;;;5.95;;
56927;SDS011;60850;52.502;13.426;2023-11-19T05:23:47;10.90;;;6.18;;
56927;SDS011;60850;52.502;13.426;2023-11-19T05:26:18;10.55;;;5.40;;
56927;SDS011;60850;52.502;13.426;2023-11-19T05:28:45;11.50;;;6.22;;
56927;SDS011;60850;52.502;13.426;2023-11-19T05:31:13;10.27;;;5.32;;
56927;SDS011;60850;52.502;13.426;2023-11-19T05:33:40;8.77;;;5.18;;
56927;SDS011;60850;52.502;13.426;2023-11-19T05:36:07;9.70;;;5.90;;
56927;SDS011;60850;52.502;13.426;2023-11-19T05:38:36;12.48;;;5.95;;
56927;SDS011;60850;52.502;13.426;2023-11-19T05:41:03;10.45;;;5.72;;
56927;SDS011;60850;52.502;13.426;2023-11-19T05:43:31;9.02;;;5.43;;
56927;SDS011;60850;52.502;13.426;2023-11-19T05:45:58;10.88;;;5.30;;
56927;SDS011;60850;52.502;13.426;2023-11-19T05:48:25;11.00;;;5.70;;
56927;SDS011;60850;52.502;13.426;2023-11-19T05:50:53;10.93;;;5.50;;
56927;SDS011;60850;52.502;13.426;2023-11-19T05:53:20;9.10;;;5.65;;
56927;SDS011;60850;52.502;13.426;2023-11-19T05:55:48;8.15;;;4.72;;
56927;SDS011;60850;52.502;13.426;2023-11-19T06:00:50;9.15;;;4.88;;
56927;SDS011;60850;52.502;13.426;2023-11-19T06:03:16;10.98;;;5.55;;
56927;SDS011;60850;52.502;13.426;2023-11-19T06:05:44;9.45;;;5.53;;
56927;SDS011;60850;52.502;13.426;2023-11-19T06:08:11;11.85;;;5.53;;
56927;SDS011;60850;52.502;13.426;2023-11-19T06:10:38;8.18;;;4.72;;
56927;SDS011;60850;52.502;13.426;2023-11-19T06:13:07;7.68;;;5.15;;
56927;SDS011;60850;52.502;13.426;2023-11-19T06:15:35;9.55;;;5.20;;
56927;SDS011;60850;52.502;13.426;2023-11-19T06:18:02;7.38;;;4.93;;
56927;SDS011;60850;52.502;13.426;2023-11-19T06:20:31;8.93;;;4.90;;
56927;SDS011;60850;52.502;13.426;2023-11-19T06:22:58;9.90;;;5.75;;
56927;SDS011;60850;52.502;13.426;2023-11-19T06:25:26;11.18;;;5.47;;
56927;SDS011;60850;52.502;13.426;2023-11-19T06:27:53;9.90;;;4.38;;
56927;SDS011;60850;52.502;13.426;2023-11-19T06:30:21;8.85;;;4.97;;
56927;SDS011;60850;52.502;13.426;2023-11-19T06:32:48;9.98;;;5.55;;
56927;SDS011;60850;52.502;13.426;2023-11-19T06:35:15;8.13;;;4.60;;
56927;SDS011;60850;52.502;13.426;2023-11-19T06:37:43;9.80;;;5.35;;
56927;SDS011;60850;52.502;13.426;2023-11-19T06:40:10;8.23;;;4.75;;
56927;SDS011;60850;52.502;13.426;2023-11-19T06:42:38;11.40;;;5.68;;
56927;SDS011;60850;52.502;13.426;2023-11-19T06:45:05;10.25;;;6.35;;
56927;SDS011;60850;52.502;13.426;2023-11-19T06:47:34;8.57;;;4.78;;
56927;SDS011;60850;52.502;13.426;2023-11-19T06:50:01;7.72;;;3.97;;
56927;SDS011;60850;52.502;13.426;2023-11-19T06:52:31;8.02;;;3.95;;
56927;SDS011;60850;52.502;13.426;2023-11-19T06:54:58;7.28;;;4.20;;
56927;SDS011;60850;52.502;13.426;2023-11-19T06:57:25;10.27;;;4.72;;
56927;SDS011;60850;52.502;13.426;2023-11-19T06:59:53;8.95;;;5.30;;
56927;SDS011;60850;52.502;13.426;2023-11-19T07:02:20;7.35;;;4.60;;
56927;SDS011;60850;52.502;13.426;2023-11-19T07:04:49;10.05;;;5.65;;
56927;SDS011;60850;52.502;13.426;2023-11-19T07:07:15;10.15;;;5.20;;
56927;SDS011;60850;52.502;13.426;2023-11-19T07:09:42;9.40;;;5.13;;
56927;SDS011;60850;52.502;13.426;2023-11-19T07:12:09;8.52;;;4.97;;
56927;SDS011;60850;52.502;13.426;2023-11-19T07:14:36;8.75;;;5.00;;
56927;SDS011;60850;52.502;13.426;2023-11-19T07:17:03;9.85;;;5.30;;
56927;SDS011;60850;52.502;13.426;2023-11-19T07:19:30;8.02;;;4.55;;
56927;SDS011;60850;52.502;13.426;2023-11-19T07:21:59;6.95;;;4.70;;
56927;SDS011;60850;52.502;13.426;2023-11-19T07:24:26;7.47;;;4.82;;
56927;SDS011;60850;52.502;13.426;2023-11-19T07:26:53;6.90;;;4.47;;
56927;SDS011;60850;52.502;13.426;2023-11-19T07:29:20;6.60;;;4.32;;
56927;SDS011;60850;52.502;13.426;2023-11-19T07:31:48;7.03;;;4.25;;
56927;SDS011;60850;52.502;13.426;2023-11-19T07:34:16;7.80;;;4.95;;
56927;SDS011;60850;52.502;13.426;2023-11-19T07:36:43;7.38;;;4.80;;
56927;SDS011;60850;52.502;13.426;2023-11-19T07:39:11;6.47;;;4.20;;
56927;SDS011;60850;52.502;13.426;2023-11-19T07:41:38;6.78;;;4.38;;
56927;SDS011;60850;52.502;13.426;2023-11-19T07:44:05;7.28;;;4.72;;
56927;SDS011;60850;52.502;13.426;2023-11-19T07:46:32;10.45;;;5.10;;
56927;SDS011;60850;52.502;13.426;2023-11-19T07:48:59;7.68;;;4.50;;
56927;SDS011;60850;52.502;13.426;2023-11-19T07:51:28;8.35;;;5.10;;
56927;SDS011;60850;52.502;13.426;2023-11-19T07:53:55;8.13;;;5.30;;
56927;SDS011;60850;52.502;13.426;2023-11-19T07:56:23;9.65;;;5.03;;
56927;SDS011;60850;52.502;13.426;2023-11-19T07:58:50;9.50;;;5.07;;
56927;SDS011;60850;52.502;13.426;2023-11-19T08:01:17;6.68;;;4.38;;
56927;SDS011;60850;52.502;13.426;2023-11-19T08:03:44;9.50;;;5.30;;
56927;SDS011;60850;52.502;13.426;2023-11-19T08:06:11;11.13;;;5.13;;
56927;SDS011;60850;52.502;13.426;2023-11-19T08:08:38;9.48;;;5.43;;
56927;SDS011;60850;52.502;13.426;2023-11-19T08:11:05;7.88;;;4.78;;
56927;SDS011;60850;52.502;13.426;2023-11-19T08:13:34;11.05;;;5.47;;
56927;SDS011;60850;52.502;13.426;2023-11-19T08:15:59;9.95;;;5.47;;
56927;SDS011;60850;52.502;13.426;2023-11-19T08:18:27;10.52;;;6.20;;
56927;SDS011;60850;52.502;13.426;2023-11-19T08:20:54;8.73;;;5.38;;
56927;SDS011;60850;52.502;13.426;2023-11-19T08:23:22;11.13;;;6.07;;
56927;SDS011;60850;52.502;13.426;2023-11-19T08:25:51;9.15;;;5.53;;
56927;SDS011;60850;52.502;13.426;2023-11-19T08:28:18;9.43;;;5.40;;
56927;SDS011;60850;52.502;13.426;2023-11-19T08:30:46;8.70;;;5.43;;
56927;SDS011;60850;52.502;13.426;2023-11-19T08:33:13;10.18;;;6.57;;
56927;SDS011;60850;52.502;13.426;2023-11-19T08:35:40;11.60;;;5.93;;
56927;SDS011;60850;52.502;13.426;2023-11-19T08:38:07;10.93;;;6.30;;
56927;SDS011;60850;52.502;13.426;2023-11-19T08:40:34;10.48;;;6.22;;
56927;SDS011;60850;52.502;13.426;2023-11-19T08:43:01;10.05;;;5.75;;
56927;SDS011;60850;52.502;13.426;2023-11-19T08:45:28;14.20;;;7.32;;
56927;SDS011;60850;52.502;13.426;2023-11-19T08:47:56;12.73;;;5.90;;
56927;SDS011;60850;52.502;13.426;2023-11-19T08:50:23;9.02;;;5.15;;
56927;SDS011;60850;52.502;13.426;2023-11-19T08:52:50;11.45;;;5.55;;
56927;SDS011;60850;52.502;13.426;2023-11-19T08:55:17;11.15;;;5.90;;
56927;SDS011;60850;52.502;13.426;2023-11-19T08:57:44;12.80;;;6.93;;
56927;SDS011;60850;52.502;13.426;2023-11-19T09:00:12;11.00;;;6.47;;
56927;SDS011;60850;52.502;13.426;2023-11-19T09:02:40;11.60;;;6.30;;
56927;SDS011;60850;52.502;13.426;2023-11-19T09:05:09;11.13;;;5.80;;
56927;SDS011;60850;52.502;13.426;2023-11-19T09:07:37;11.45;;;6.55;;
56927;SDS011;60850;52.502;13.426;2023-11-19T09:10:05;9.30;;;5.85;;
56927;SDS011;60850;52.502;13.426;2023-11-19T09:12:34;11.23;;;5.70;;
56927;SDS011;60850;52.502;13.426;2023-11-19T09:15:01;9.85;;;5.40;;
56927;SDS011;60850;52.502;13.426;2023-11-19T09:17:28;10.48;;;5.47;;
56927;SDS011;60850;52.502;13.426;2023-11-19T09:19:55;7.82;;;4.93;;
56927;SDS011;60850;52.502;13.426;2023-11-19T09:22:23;9.70;;;5.25;;
56927;SDS011;60850;52.502;13.426;2023-11-19T09:24:50;8.95;;;5.10;;
56927;SDS011;60850;52.502;13.426;2023-11-19T09:27:17;8.15;;;5.30;;
56927;SDS011;60850;52.502;13.426;2023-11-19T09:29:44;8.30;;;5.35;;
56927;SDS011;60850;52.502;13.426;2023-11-19T09:32:11;9.57;;;5.32;;
56927;SDS011;60850;52.502;13.426;2023-11-19T09:34:39;10.82;;;5.55;;
56927;SDS011;60850;52.502;13.426;2023-11-19T09:37:05;8.60;;;5.13;;
56927;SDS011;60850;52.502;13.426;2023-11-19T09:39:34;7.30;;;4.60;;
56927;SDS011;60850;52.502;13.426;2023-11-19T09:42:01;8.48;;;5.30;;
56927;SDS011;60850;52.502;13.426;2023-11-19T09:44:28;5.63;;;3.92;;
56927;SDS011;60850;52.502;13.426;2023-11-19T09:46:56;7.55;;;4.65;;
56927;SDS011;60850;52.502;13.426;2023-11-19T09:49:24;8.35;;;5.00;;
56927;SDS011;60850;52.502;13.426;2023-11-19T09:51:53;6.95;;;4.47;;
56927;SDS011;60850;52.502;13.426;2023-11-19T09:54:20;8.98;;;5.07;;
56927;SDS011;60850;52.502;13.426;2023-11-19T09:56:49;8.82;;;5.65;;
56927;SDS011;60850;52.502;13.426;2023-11-19T09:59:16;12.90;;;6.22;;
56927;SDS011;60850;52.502;13.426;2023-11-19T10:01:45;9.77;;;4.57;;
56927;SDS011;60850;52.502;13.426;2023-11-19T10:04:14;6.15;;;4.68;;
56927;SDS011;60850;52.502;13.426;2023-11-19T10:06:41;6.55;;;3.55;;
56927;SDS011;60850;52.502;13.426;2023-11-19T10:09:09;7.25;;;3.97;;
56927;SDS011;60850;52.502;13.426;2023-11-19T10:11:35;7.30;;;4.05;;
56927;SDS011;60850;52.502;13.426;2023-11-19T10:14:04;5.75;;;3.90;;
56927;SDS011;60850;52.502;13.426;2023-11-19T10:16:31;6.65;;;3.58;;
56927;SDS011;60850;52.502;13.426;2023-11-19T10:19:01;9.98;;;4.07;;
56927;SDS011;60850;52.502;13.426;2023-11-19T10:21:28;6.13;;;2.97;;
56927;SDS011;60850;52.502;13.426;2023-11-19T10:23:59;7.10;;;3.50;;
56927;SDS011;60850;52.502;13.426;2023-11-19T10:26:26;8.18;;;4.25;;
56927;SDS011;60850;52.502;13.426;2023-11-19T10:28:55;6.93;;;3.47;;
56927;SDS011;60850;52.502;13.426;2023-11-19T10:31:23;8.15;;;3.60;;
56927;SDS011;60850;52.502;13.426;2023-11-19T10:33:52;7.55;;;3.67;;
56927;SDS011;60850;52.502;13.426;2023-11-19T10:36:19;6.15;;;3.22;;
56927;SDS011;60850;52.502;13.426;2023-11-19T10:38:52;5.88;;;2.85;;
56927;SDS011;60850;52.502;13.426;2023-11-19T10:41:26;6.55;;;3.35;;
56927;SDS011;60850;52.502;13.426;2023-11-19T10:43:54;8.77;;;3.65;;
56927;SDS011;60850;52.502;13.426;2023-11-19T10:46:21;9.63;;;3.55;;
56927;SDS011;60850;52.502;13.426;2023-11-19T10:48:50;5.28;;;2.80;;
56927;SDS011;60850;52.502;13.426;2023-11-19T10:51:18;9.80;;;2.92;;
56927;SDS011;60850;52.502;13.426;2023-11-19T10:53:49;6.65;;;3.70;;
56927;SDS011;60850;52.502;13.426;2023-11-19T10:56:16;6.47;;;2.50;;
56927;SDS011;60850;52.502;13.426;2023-11-19T10:58:47;5.65;;;2.65;;
56927;SDS011;60850;52.502;13.426;2023-11-19T11:01:18;6.88;;;2.60;;
56927;SDS011;60850;52.502;13.426;2023-11-19T11:03:47;6.90;;;3.10;;
56927;SDS011;60850;52.502;13.426;2023-11-19T11:06:17;9.60;;;3.08;;
56927;SDS011;60850;52.502;13.426;2023-11-19T11:08:46;10.52;;;3.15;;
56927;SDS011;60850;52.502;13.426;2023-11-19T11:11:13;8.43;;;2.70;;
56927;SDS011;60850;52.502;13.426;2023-11-19T11:13:42;8.63;;;3.13;;
56927;SDS011;60850;52.502;13.426;2023-11-19T11:16:11;8.23;;;3.13;;
56927;SDS011;60850;52.502;13.426;2023-11-19T11:18:40;11.10;;;3.50;;
56927;SDS011;60850;52.502;13.426;2023-11-19T11:21:10;13.27;;;4.47;;
56927;SDS011;60850;52.502;13.426;2023-11-19T11:24:00;9.93;;;3.28;;
56927;SDS011;60850;52.502;13.426;2023-11-19T11:26:50;8.82;;;3.30;;
56927;SDS011;60850;52.502;13.426;2023-11-19T11:29:31;13.63;;;3.75;;
56927;SDS011;60850;52.502;13.426;2023-11-19T11:32:06;11.45;;;3.58;;
56927;SDS011;60850;52.502;13.426;2023-11-19T11:37:39;16.70;;;4.20;;
56927;SDS011;60850;52.502;13.426;2023-11-19T11:40:15;14.98;;;5.50;;
56927;SDS011;60850;52.502;13.426;2023-11-19T11:42:43;11.55;;;3.75;;
56927;SDS011;60850;52.502;13.426;2023-11-19T11:45:10;7.72;;;3.38;;
56927;SDS011;60850;52.502;13.426;2023-11-19T11:50:47;11.02;;;3.55;;
56927;SDS011;60850;52.502;13.426;2023-11-19T11:53:19;14.70;;;4.10;;
56927;SDS011;60850;52.502;13.426;2023-11-19T11:55:54;13.43;;;4.15;;
56927;SDS011;60850;52.502;13.426;2023-11-19T12:01:10;11.93;;;4.15;;
56927;SDS011;60850;52.502;13.426;2023-11-19T12:03:45;14.27;;;4.88;;
56927;SDS011;60850;52.502;13.426;2023-11-19T12:06:12;14.27;;;3.95;;
56927;SDS011;60850;52.502;13.426;2023-11-19T12:08:40;18.83;;;4.43;;
56927;SDS011;60850;52.502;13.426;2023-11-19T12:11:09;17.63;;;4.90;;
56927;SDS011;60850;52.502;13.426;2023-11-19T12:13:46;12.93;;;4.13;;
56927;SDS011;60850;52.502;13.426;2023-11-19T12:16:19;15.40;;;4.30;;
56927;SDS011;60850;52.502;13.426;2023-11-19T12:18:46;17.13;;;4.25;;
56927;SDS011;60850;52.502;13.426;2023-11-19T12:21:27;23.45;;;6.55;;
56927;SDS011;60850;52.502;13.426;2023-11-19T12:23:54;15.15;;;4.45;;
56927;SDS011;60850;52.502;13.426;2023-11-19T12:26:33;9.07;;;3.75;;
56927;SDS011;60850;52.502;13.426;2023-11-19T12:29:00;11.82;;;4.32;;
56927;SDS011;60850;52.502;13.426;2023-11-19T12:31:31;17.63;;;3.83;;
56927;SDS011;60850;52.502;13.426;2023-11-19T12:34:05;14.93;;;4.72;;
56927;SDS011;60850;52.502;13.426;2023-11-19T12:36:38;17.38;;;4.35;;
56927;SDS011;60850;52.502;13.426;2023-11-19T12:39:06;16.70;;;4.60;;
56927;SDS011;60850;52.502;13.426;2023-11-19T12:41:49;24.08;;;5.13;;
56927;SDS011;60850;52.502;13.426;2023-11-19T12:44:17;20.88;;;5.63;;
56927;SDS011;60850;52.502;13.426;2023-11-19T12:46:58;21.23;;;5.50;;
56927;SDS011;60850;52.502;13.426;2023-11-19T12:49:26;18.40;;;5.03;;
56927;SDS011;60850;52.502;13.426;2023-11-19T12:51:54;19.90;;;5.03;;
56927;SDS011;60850;52.502;13.426;2023-11-19T12:54:31;25.52;;;4.97;;
56927;SDS011;60850;52.502;13.426;2023-11-19T12:57:00;20.13;;;6.15;;
56927;SDS011;60850;52.502;13.426;2023-11-19T12:59:31;20.88;;;5.43;;
56927;SDS011;60850;52.502;13.426;2023-11-19T13:01:58;20.33;;;6.85;;
56927;SDS011;60850;52.502;13.426;2023-11-19T13:04:28;16.17;;;4.30;;
56927;SDS011;60850;52.502;13.426;2023-11-19T13:06:56;17.98;;;3.97;;
56927;SDS011;60850;52.502;13.426;2023-11-19T13:09:23;14.05;;;3.85;;
56927;SDS011;60850;52.502;13.426;2023-11-19T13:11:51;18.92;;;4.32;;
56927;SDS011;60850;52.502;13.426;2023-11-19T13:14:23;23.15;;;4.70;;
56927;SDS011;60850;52.502;13.426;2023-11-19T13:16:50;21.08;;;5.82;;
56927;SDS011;60850;52.502;13.426;2023-11-19T13:19:19;23.60;;;4.55;;
56927;SDS011;60850;52.502;13.426;2023-11-19T13:21:49;14.85;;;4.40;;
56927;SDS011;60850;52.502;13.426;2023-11-19T13:24:15;13.93;;;3.58;;
56927;SDS011;60850;52.502;13.426;2023-11-19T13:26:43;17.77;;;3.45;;
56927;SDS011;60850;52.502;13.426;2023-11-19T13:29:10;17.42;;;4.18;;
56927;SDS011;60850;52.502;13.426;2023-11-19T13:31:38;20.15;;;4.80;;
56927;SDS011;60850;52.502;13.426;2023-11-19T13:34:05;21.60;;;4.95;;
56927;SDS011;60850;52.502;13.426;2023-11-19T13:36:33;27.58;;;5.32;;
56927;SDS011;60850;52.502;13.426;2023-11-19T13:39:00;19.48;;;4.97;;
56927;SDS011;60850;52.502;13.426;2023-11-19T13:41:27;18.08;;;4.75;;
56927;SDS011;60850;52.502;13.426;2023-11-19T13:43:54;23.00;;;4.75;;
56927;SDS011;60850;52.502;13.426;2023-11-19T13:46:21;19.40;;;5.63;;
56927;SDS011;60850;52.502;13.426;2023-11-19T13:48:50;15.00;;;4.15;;
56927;SDS011;60850;52.502;13.426;2023-11-19T13:51:17;16.77;;;4.75;;
56927;SDS011;60850;52.502;13.426;2023-11-19T13:53:43;15.00;;;4.30;;
56927;SDS011;60850;52.502;13.426;2023-11-19T13:56:10;23.10;;;5.20;;
56927;SDS011;60850;52.502;13.426;2023-11-19T13:58:37;23.00;;;6.50;;
56927;SDS011;60850;52.502;13.426;2023-11-19T14:01:05;23.73;;;6.43;;
56927;SDS011;60850;52.502;13.426;2023-11-19T14:03:33;25.23;;;6.43;;
56927;SDS011;60850;52.502;13.426;2023-11-19T14:06:05;25.58;;;5.50;;
56927;SDS011;60850;52.502;13.426;2023-11-19T14:08:33;21.02;;;5.07;;
56927;SDS011;60850;52.502;13.426;2023-11-19T14:11:00;17.60;;;5.57;;
56927;SDS011;60850;52.502;13.426;2023-11-19T14:13:27;21.27;;;5.63;;
56927;SDS011;60850;52.502;13.426;2023-11-19T14:15:54;22.42;;;6.78;;
56927;SDS011;60850;52.502;13.426;2023-11-19T14:18:21;20.52;;;6.10;;
56927;SDS011;60850;52.502;13.426;2023-11-19T14:20:48;23.98;;;6.20;;
56927;SDS011;60850;52.502;13.426;2023-11-19T14:23:16;24.98;;;6.80;;
56927;SDS011;60850;52.502;13.426;2023-11-19T14:25:44;18.77;;;4.82;;
56927;SDS011;60850;52.502;13.426;2023-11-19T14:28:10;18.73;;;6.28;;
56927;SDS011;60850;52.502;13.426;2023-11-19T14:30:38;22.92;;;6.07;;
56927;SDS011;60850;52.502;13.426;2023-11-19T14:33:06;29.88;;;6.78;;
56927;SDS011;60850;52.502;13.426;2023-11-19T14:35:33;21.67;;;6.57;;
56927;SDS011;60850;52.502;13.426;2023-11-19T14:38:00;23.55;;;5.82;;
56927;SDS011;60850;52.502;13.426;2023-11-19T14:40:31;16.63;;;4.95;;
56927;SDS011;60850;52.502;13.426;2023-11-19T14:42:58;19.25;;;6.15;;
56927;SDS011;60850;52.502;13.426;2023-11-19T14:45:25;23.55;;;5.85;;